createdAt,value
2023-01-02T00:02:26.027Z,100917.41
2023-01-02T00:04:55.818Z,100700.00
2023-01-02T00:07:24.336Z,100902.50
2023-01-02T00:09:52.750Z,100914.69
2023-01-02T00:12:21.793Z,100919.13
2023-01-02T00:14:56.209Z,100902.41
2023-01-02T00:17:24.748Z,100600.63
2023-01-02T00:19:53.199Z,100810.66
2023-01-02T00:22:21.635Z,100892.38
2023-01-02T00:24:50.081Z,100887.84
2023-01-02T00:27:18.514Z,100883.38
2023-01-02T00:29:47.494Z,100877.16
2023-01-02T00:32:19.047Z,100762.81
2023-01-02T00:34:56.314Z,100575.38
2023-01-02T00:37:27.162Z,100855.97
2023-01-02T00:39:55.588Z,100869.25
2023-01-02T00:42:24.001Z,100859.56
2023-01-02T00:44:52.486Z,100856.03
2023-01-02T00:47:24.379Z,100855.19
2023-01-02T00:49:52.821Z,100849.00
2023-01-02T00:52:21.161Z,100849.91
2023-01-02T00:54:51.810Z,100858.69
2023-01-02T00:57:20.393Z,100848.13
2023-01-02T00:59:48.783Z,100842.88
2023-01-02T01:02:17.391Z,100820.22
2023-01-02T01:04:47.376Z,100830.53
2023-01-02T01:07:15.819Z,100830.53
2023-01-02T01:09:44.218Z,100712.09
2023-01-02T01:12:12.908Z,100822.75
2023-01-02T01:14:41.334Z,100631.75
2023-01-02T01:17:10.089Z,100833.09
2023-01-02T01:19:38.597Z,100737.06
2023-01-02T01:22:08.688Z,100815.38
2023-01-02T01:24:37.172Z,100818.81
2023-01-02T01:27:05.710Z,100814.28
2023-01-02T01:29:34.178Z,100811.56
2023-01-02T01:32:02.761Z,100808.00
2023-01-02T01:34:31.309Z,100741.72
2023-01-02T01:37:02.130Z,100806.09
2023-01-02T01:39:31.926Z,100800.72
2023-01-02T01:42:01.024Z,100798.94
2023-01-02T01:44:52.003Z,100773.66
2023-01-02T01:47:41.879Z,100787.44
2023-01-02T01:50:17.562Z,100802.47
2023-01-02T01:52:52.752Z,100709.00
2023-01-02T01:55:27.491Z,100769.72
2023-01-02T01:58:00.269Z,100610.06
2023-01-02T02:00:31.535Z,100767.56
2023-01-02T02:03:08.040Z,100771.91
2023-01-02T02:05:37.833Z,100706.34
2023-01-02T02:08:20.022Z,100756.81
2023-01-02T02:10:51.584Z,100755.88
2023-01-02T02:13:20.469Z,100749.59
2023-01-02T02:16:04.293Z,100742.47
2023-01-02T02:19:04.717Z,100704.31
2023-01-02T02:22:02.508Z,100760.09
2023-01-02T02:25:17.925Z,100751.22
2023-01-02T02:28:29.865Z,100737.13
2023-01-02T02:31:13.011Z,100727.59
2023-01-02T02:33:55.663Z,100753.84
2023-01-02T02:36:35.695Z,100747.69
2023-01-02T02:39:19.374Z,100741.53
2023-01-02T02:41:58.639Z,100736.25
2023-01-02T02:44:41.945Z,100737.13
2023-01-02T02:47:23.181Z,100709.91
2023-01-02T02:50:03.890Z,100680.25
2023-01-02T02:52:41.412Z,100734.22
2023-01-02T02:55:16.440Z,100734.19
2023-01-02T02:57:47.632Z,100719.00
2023-01-02T03:00:20.095Z,100712.78
2023-01-02T03:02:50.117Z,100718.97
2023-01-02T03:05:26.687Z,100714.56
2023-01-02T03:08:05.016Z,100693.63
2023-01-02T03:10:48.159Z,100720.69
2023-01-02T03:13:26.496Z,100719.00
2023-01-02T03:16:06.273Z,100712.84
2023-01-02T03:18:43.007Z,100711.03
2023-01-02T03:21:18.252Z,100708.31
2023-01-02T03:23:50.934Z,100684.00
2023-01-02T03:26:27.676Z,100641.28
2023-01-02T03:29:10.373Z,100714.47
2023-01-02T03:31:45.077Z,100710.91
2023-01-02T03:34:22.549Z,100710.03
2023-01-02T03:36:56.879Z,100708.25
2023-01-02T03:39:32.308Z,100711.84
2023-01-02T03:42:08.813Z,100684.00
2023-01-02T03:44:45.568Z,100706.66
2023-01-02T03:47:28.829Z,100700.50
2023-01-02T03:50:04.113Z,100701.38
2023-01-02T03:52:32.681Z,100688.31
2023-01-02T03:55:02.724Z,100535.22
2023-01-02T03:57:44.338Z,100701.38
2023-01-02T04:00:18.353Z,100699.56
2023-01-02T04:02:57.896Z,100703.13
2023-01-02T04:05:39.781Z,100696.81
2023-01-02T04:08:18.341Z,100695.16
2023-01-02T04:10:56.297Z,100687.19
2023-01-02T04:13:33.624Z,100533.91
2023-01-02T04:16:04.176Z,100685.47
2023-01-02T04:18:46.414Z,100560.16
2023-01-02T04:21:23.109Z,100614.94
2023-01-02T04:24:00.135Z,100679.44
2023-01-02T04:26:36.239Z,100681.28
2023-01-02T04:29:05.340Z,100684.00
2023-01-02T04:31:44.366Z,100630.81
2023-01-02T04:34:18.270Z,100640.47
2023-01-02T04:36:48.261Z,100677.00
2023-01-02T04:39:16.739Z,100676.88
2023-01-02T04:41:45.193Z,100676.84
2023-01-02T04:44:13.614Z,100683.00
2023-01-02T04:46:42.020Z,100684.81
2023-01-02T04:49:11.188Z,100687.47
2023-01-02T04:51:39.875Z,100689.25
2023-01-02T04:54:13.257Z,100692.81
2023-01-02T04:56:42.880Z,100696.31
2023-01-02T04:59:31.039Z,100580.34
2023-01-02T05:02:00.056Z,100688.41
2023-01-02T05:04:30.717Z,100516.16
2023-01-02T05:06:59.667Z,100689.44
2023-01-02T05:09:29.556Z,100688.56
2023-01-02T05:11:58.183Z,100664.06
2023-01-02T05:14:27.961Z,100652.91
2023-01-02T05:16:56.458Z,100689.47
2023-01-02T05:19:24.883Z,100688.66
2023-01-02T05:22:10.756Z,100682.53
2023-01-02T05:24:40.545Z,100676.47
2023-01-02T05:27:09.006Z,100680.97
2023-01-02T05:29:40.400Z,100687.28
2023-01-02T05:32:08.885Z,100691.78
2023-01-02T05:34:37.319Z,100683.13
2023-01-02T05:37:05.785Z,100693.88
2023-01-02T05:39:34.180Z,100695.75
2023-01-02T05:42:04.094Z,100664.56
2023-01-02T05:44:32.565Z,100688.34
2023-01-02T05:47:01.997Z,100633.66
2023-01-02T05:49:30.458Z,100689.63
2023-01-02T05:51:58.922Z,100683.59
2023-01-02T05:54:27.349Z,100677.47
2023-01-02T05:56:57.630Z,100684.56
2023-01-02T05:59:27.458Z,100673.75
2023-01-02T06:01:57.298Z,100672.81
2023-01-02T06:04:39.112Z,100675.31
2023-01-02T06:07:07.751Z,100553.25
2023-01-02T06:09:36.181Z,100483.75
2023-01-02T06:12:05.455Z,100674.06
2023-01-02T06:14:35.256Z,100668.59
2023-01-02T06:17:03.876Z,100675.53
2023-01-02T06:19:35.130Z,100669.28
2023-01-02T06:22:03.528Z,100670.16
2023-01-02T06:24:31.983Z,100498.50
2023-01-02T06:27:00.700Z,100674.41
2023-01-02T06:29:30.834Z,100668.16
2023-01-02T06:32:00.666Z,100663.66
2023-01-02T06:34:29.102Z,100663.66
2023-01-02T06:36:57.535Z,100665.44
2023-01-02T06:39:27.439Z,100666.38
2023-01-02T06:41:56.013Z,100670.84
2023-01-02T06:44:24.469Z,100670.91
2023-01-02T06:46:53.218Z,100666.50
2023-01-02T06:49:23.195Z,100647.47
2023-01-02T06:52:00.175Z,100662.38
2023-01-02T06:54:29.024Z,100637.16
2023-01-02T06:56:57.462Z,100672.84
2023-01-02T06:59:27.594Z,100670.28
2023-01-02T07:01:56.178Z,100667.03
2023-01-02T07:04:26.027Z,100675.81
2023-01-02T07:06:54.466Z,100659.00
2023-01-02T07:09:22.893Z,100677.50
2023-01-02T07:11:51.573Z,100610.50
2023-01-02T07:14:20.243Z,100667.78
2023-01-02T07:16:48.679Z,100666.88
2023-01-02T07:19:17.597Z,100664.25
2023-01-02T07:21:47.472Z,100667.78
2023-01-02T07:24:17.021Z,100690.69
2023-01-02T07:26:45.557Z,100629.72
2023-01-02T07:29:14.612Z,100673.03
2023-01-02T07:31:43.077Z,100681.84
2023-01-02T07:34:11.817Z,100546.88
2023-01-02T07:36:40.389Z,100674.69
2023-01-02T07:39:10.418Z,100680.00
2023-01-02T07:41:38.855Z,100683.38
2023-01-02T07:44:15.284Z,100598.50
2023-01-02T07:46:44.252Z,100575.00
2023-01-02T07:49:13.521Z,100695.06
2023-01-02T07:51:42.167Z,100632.16
2023-01-02T07:54:11.972Z,100694.78
2023-01-02T07:56:40.429Z,100631.16
2023-01-02T07:59:09.133Z,100679.44
2023-01-02T08:01:37.903Z,100625.19
2023-01-02T08:04:06.392Z,100683.44
2023-01-02T08:06:37.584Z,100627.78
2023-01-02T08:09:07.442Z,100599.75
2023-01-02T08:11:43.848Z,100594.66
2023-01-02T08:14:23.450Z,100654.19
2023-01-02T08:17:01.020Z,100735.16
2023-01-02T08:19:29.481Z,100767.44
2023-01-02T08:21:57.824Z,100758.47
2023-01-02T08:24:26.242Z,100757.47
2023-01-02T08:26:55.965Z,100762.72
2023-01-02T08:29:24.344Z,100754.63
2023-01-02T08:31:52.706Z,100599.56
2023-01-02T08:34:21.563Z,100677.00
2023-01-02T08:36:49.990Z,100727.94
2023-01-02T08:39:18.423Z,100746.06
2023-01-02T08:41:46.803Z,100749.56
2023-01-02T08:44:17.282Z,100757.53
2023-01-02T08:46:46.071Z,100759.38
2023-01-02T08:49:14.509Z,100759.50
2023-01-02T08:51:43.925Z,100746.53
2023-01-02T08:54:12.383Z,100738.44
2023-01-02T08:56:41.507Z,100715.75
2023-01-02T08:59:13.696Z,100778.25
2023-01-02T09:01:43.855Z,100749.53
2023-01-02T09:04:13.525Z,100730.44
2023-01-02T09:06:45.388Z,100780.63
2023-01-02T09:09:16.613Z,100789.16
2023-01-02T09:11:50.403Z,100737.88
2023-01-02T09:14:21.841Z,100701.19
2023-01-02T09:16:53.943Z,100774.31
2023-01-02T09:19:23.013Z,100699.44
2023-01-02T09:21:54.074Z,100772.69
2023-01-02T09:24:22.523Z,100742.00
2023-01-02T09:26:50.931Z,100766.94
2023-01-02T09:29:22.615Z,100769.41
2023-01-02T09:31:52.419Z,100777.28
2023-01-02T09:34:20.843Z,100767.44
2023-01-02T09:36:49.363Z,100702.09
2023-01-02T09:39:18.031Z,100765.69
2023-01-02T09:41:52.185Z,100726.56
2023-01-02T09:44:27.248Z,100772.81
2023-01-02T09:47:02.139Z,100757.09
2023-01-02T09:49:42.302Z,100754.66
2023-01-02T09:52:20.347Z,100767.44
2023-01-02T09:54:49.723Z,100760.28
2023-01-02T09:57:38.011Z,100733.41
2023-01-02T10:00:15.935Z,100772.72
2023-01-02T10:03:08.522Z,100760.38
2023-01-02T10:06:02.411Z,100755.06
2023-01-02T10:08:43.376Z,100738.38
2023-01-02T10:11:31.069Z,100757.66
2023-01-02T10:14:20.633Z,100675.59
2023-01-02T10:16:56.114Z,100744.31
2023-01-02T10:19:41.884Z,100749.59
2023-01-02T10:22:16.533Z,100721.56
2023-01-02T10:24:53.161Z,100752.53
2023-01-02T10:27:31.069Z,100755.56
2023-01-02T10:30:14.855Z,100740.94
2023-01-02T10:32:49.044Z,100716.44
2023-01-02T10:35:35.799Z,100729.44
2023-01-02T10:38:04.951Z,100729.50
2023-01-02T10:40:35.018Z,100722.28
2023-01-02T10:43:03.836Z,100713.16
2023-01-02T10:45:34.544Z,100716.59
2023-01-02T10:48:05.360Z,100588.41
2023-01-02T10:50:43.275Z,100704.19
2023-01-02T10:53:24.092Z,100712.97
2023-01-02T10:55:52.546Z,100712.91
2023-01-02T10:58:25.279Z,100647.75
2023-01-02T11:01:06.110Z,100717.03
2023-01-02T11:03:35.415Z,100721.34
2023-01-02T11:06:30.076Z,100712.53
2023-01-02T11:09:03.600Z,100711.31
2023-01-02T11:11:33.963Z,100682.63
2023-01-02T11:14:11.512Z,100647.41
2023-01-02T11:16:42.764Z,100674.16
2023-01-02T11:19:29.118Z,100704.97
2023-01-02T11:21:59.658Z,100690.19
2023-01-02T11:24:28.681Z,100696.56
2023-01-02T11:27:02.869Z,100603.84
2023-01-02T11:29:36.045Z,100696.31
2023-01-02T11:32:06.194Z,100691.31
2023-01-02T11:34:38.367Z,100679.06
2023-01-02T11:37:18.074Z,100689.84
2023-01-02T11:40:02.833Z,100630.78
2023-01-02T11:42:58.529Z,100692.22
2023-01-02T11:45:27.978Z,100687.44
2023-01-02T11:48:02.731Z,100595.69
2023-01-02T11:50:35.598Z,100684.81
2023-01-02T11:53:18.976Z,100543.44
2023-01-02T11:55:55.690Z,100681.69
2023-01-02T11:58:41.965Z,100683.09
2023-01-02T12:01:26.829Z,100614.56
2023-01-02T12:03:56.198Z,100666.44
2023-01-02T12:06:33.743Z,100709.00
2023-01-02T12:09:12.366Z,100708.72
2023-01-02T12:12:06.599Z,100711.25
2023-01-02T12:15:04.705Z,100709.59
2023-01-02T12:17:46.939Z,100707.91
2023-01-02T12:20:43.194Z,100633.44
2023-01-02T12:23:53.382Z,100708.41
2023-01-02T12:26:33.541Z,100708.63
2023-01-02T12:29:48.817Z,100714.22
2023-01-02T12:32:58.358Z,100702.84
2023-01-02T12:36:06.117Z,100691.72
2023-01-02T12:38:55.687Z,100698.63
2023-01-02T12:41:35.522Z,100696.78
2023-01-02T12:44:47.116Z,100704.78
2023-01-02T12:47:39.600Z,100687.38
2023-01-02T12:50:54.949Z,100715.25
2023-01-02T12:53:48.151Z,100709.19
2023-01-02T12:56:46.627Z,100669.50
2023-01-02T12:59:49.984Z,100691.31
2023-01-02T13:02:42.173Z,100511.72
2023-01-02T13:05:17.938Z,100692.41
2023-01-02T13:07:54.114Z,100696.75
2023-01-02T13:10:28.151Z,100693.16
2023-01-02T13:13:01.741Z,100688.84
2023-01-02T13:15:35.446Z,100636.84
2023-01-02T13:18:11.610Z,100665.00
2023-01-02T13:20:52.114Z,100686.19
2023-01-02T13:23:39.693Z,100691.78
2023-01-02T13:26:14.084Z,100690.06
2023-01-02T13:28:53.203Z,100694.56
2023-01-02T13:34:22.152Z,100706.56
2023-01-02T13:36:58.768Z,100691.22
2023-01-02T13:39:33.751Z,100709.72
2023-01-02T13:42:22.914Z,100631.38
2023-01-02T13:44:57.280Z,100705.53
2023-01-02T13:47:34.751Z,100630.13
2023-01-02T13:50:16.379Z,100714.75
2023-01-02T13:53:08.120Z,100715.72
2023-01-02T13:55:38.249Z,100684.28
2023-01-02T13:58:41.534Z,100694.94
2023-01-02T14:02:15.176Z,100625.59
2023-01-02T14:04:44.105Z,100706.53
2023-01-02T14:07:49.216Z,100702.31
2023-01-02T14:10:34.753Z,100725.09
2023-01-02T14:13:17.603Z,100717.31
2023-01-02T14:16:41.199Z,100720.09
2023-01-02T14:19:24.902Z,100714.94
2023-01-02T14:22:05.168Z,100720.31
2023-01-02T14:24:38.866Z,100655.91
2023-01-02T14:27:21.310Z,100628.25
2023-01-02T14:29:54.689Z,100729.28
2023-01-02T14:32:36.455Z,100679.06
2023-01-02T14:35:25.684Z,100741.88
2023-01-02T14:38:07.291Z,100754.34
2023-01-02T14:40:39.745Z,100741.97
2023-01-02T14:43:32.503Z,100750.00
2023-01-02T14:46:11.803Z,100687.38
2023-01-02T14:48:54.900Z,100752.66
2023-01-02T14:51:34.012Z,100752.72
2023-01-02T14:54:15.643Z,100751.91
2023-01-02T14:56:50.054Z,100752.88
2023-01-02T14:59:28.202Z,100728.59
2023-01-02T15:02:04.416Z,100610.25
2023-01-02T15:04:40.303Z,100747.06
2023-01-02T15:07:18.557Z,100758.78
2023-01-02T15:09:52.649Z,100747.53
2023-01-02T15:12:46.756Z,100730.19
2023-01-02T15:15:18.997Z,100751.16
2023-01-02T15:17:50.175Z,100753.00
2023-01-02T15:20:21.988Z,100731.38
2023-01-02T15:22:54.717Z,100749.56
2023-01-02T15:25:35.215Z,100750.47
2023-01-02T15:28:09.147Z,100747.84
2023-01-02T15:30:40.091Z,100750.56
2023-01-02T15:33:29.997Z,100763.03
2023-01-02T15:36:03.146Z,100762.28
2023-01-02T15:38:33.555Z,100628.13
2023-01-02T15:41:02.091Z,100671.09
2023-01-02T15:43:52.243Z,100618.88
2023-01-02T15:46:24.024Z,100763.78
2023-01-02T15:48:54.028Z,100555.78
2023-01-02T15:51:41.463Z,100770.22
2023-01-02T15:54:18.647Z,100787.03
2023-01-02T15:56:49.085Z,100783.53
2023-01-02T15:59:30.604Z,100788.03
2023-01-02T16:01:59.097Z,100789.94
2023-01-02T16:04:30.405Z,100793.63
2023-01-02T16:07:02.282Z,100805.25
2023-01-02T16:09:32.979Z,100627.41
2023-01-02T16:12:05.719Z,100795.63
2023-01-02T16:14:51.355Z,100796.59
2023-01-02T16:17:27.280Z,100782.00
2023-01-02T16:20:03.058Z,100812.34
2023-01-02T16:22:43.007Z,100656.19
2023-01-02T16:25:20.365Z,100805.19
2023-01-02T16:27:54.965Z,100719.03
2023-01-02T16:30:43.322Z,100824.72
2023-01-02T16:33:28.104Z,100829.13
2023-01-02T16:36:21.742Z,100442.25
2023-01-02T16:39:14.577Z,100700.06
2023-01-02T16:42:15.217Z,100773.28
2023-01-02T16:44:54.982Z,100807.41
2023-01-02T16:47:25.697Z,100825.00
2023-01-02T16:49:58.643Z,100792.97
2023-01-02T16:52:33.903Z,100831.13
2023-01-02T16:55:03.861Z,100830.34
2023-01-02T16:57:33.989Z,100846.16
2023-01-02T17:00:02.458Z,100845.28
2023-01-02T17:02:31.331Z,100839.09
2023-01-02T17:04:59.931Z,100805.25
2023-01-02T17:07:32.016Z,100509.56
2023-01-02T17:10:03.815Z,100863.34
2023-01-02T17:13:04.604Z,100741.13
2023-01-02T17:15:48.888Z,100860.09
2023-01-02T17:18:22.029Z,100865.94
2023-01-02T17:20:52.746Z,100845.69
2023-01-02T17:23:22.544Z,100869.34
2023-01-02T17:25:52.939Z,100862.75
2023-01-02T17:28:29.707Z,100841.78
2023-01-02T17:31:05.178Z,100880.00
2023-01-02T17:33:38.865Z,100552.22
2023-01-02T17:36:27.794Z,100776.94
2023-01-02T17:38:58.910Z,100804.78
2023-01-02T17:41:39.869Z,100742.78
2023-01-02T17:44:32.126Z,100588.78
2023-01-02T17:47:48.299Z,100877.09
2023-01-02T17:50:09.918Z,100600.78
2023-01-02T17:52:41.263Z,100916.34
2023-01-02T17:55:10.959Z,100901.66
2023-01-02T17:57:50.776Z,100919.25
2023-01-02T18:00:51.224Z,100631.59
2023-01-02T18:03:32.230Z,100849.63
2023-01-02T18:06:12.003Z,100611.94
2023-01-02T18:08:46.918Z,100886.97
2023-01-02T18:11:18.921Z,100912.28
2023-01-02T18:13:51.623Z,100919.88
2023-01-02T18:16:29.481Z,100753.66
2023-01-02T18:18:58.165Z,100813.84
2023-01-02T18:21:32.437Z,100916.94
2023-01-02T18:24:09.248Z,100933.34
2023-01-02T18:26:40.141Z,100880.09
2023-01-02T18:29:25.351Z,100929.09
2023-01-02T18:31:56.120Z,100940.63
2023-01-02T18:34:47.798Z,100901.00
2023-01-02T18:37:24.824Z,100821.63
2023-01-02T18:40:06.659Z,100647.88
2023-01-02T18:42:38.482Z,100829.31
2023-01-02T18:45:19.193Z,100953.53
2023-01-02T18:47:59.399Z,100875.41
2023-01-02T18:50:49.597Z,100968.09
2023-01-02T18:53:45.539Z,100649.44
2023-01-02T18:56:19.663Z,100817.75
2023-01-02T18:59:00.708Z,100884.09
2023-01-02T19:01:33.963Z,100839.13
2023-01-02T19:04:28.330Z,100867.94
2023-01-02T19:07:00.465Z,100992.84
2023-01-02T19:09:38.208Z,100720.88
2023-01-02T19:12:43.918Z,100906.84
2023-01-02T19:15:46.758Z,100998.94
2023-01-02T19:18:38.151Z,100889.22
2023-01-02T19:21:29.085Z,100967.16
2023-01-02T19:24:02.240Z,101002.25
2023-01-02T19:26:42.440Z,101001.53
2023-01-02T19:29:25.715Z,100891.81
2023-01-02T19:32:07.092Z,100945.91
2023-01-02T19:34:51.000Z,101002.00
2023-01-02T19:37:46.933Z,100992.59
2023-01-02T19:40:23.190Z,100997.88
2023-01-02T19:42:53.983Z,100858.28
2023-01-02T19:45:28.223Z,100834.00
2023-01-02T19:47:59.976Z,101021.94
2023-01-02T19:50:30.702Z,100893.69
2023-01-02T19:53:01.194Z,100786.34
2023-01-02T19:55:32.687Z,100919.00
2023-01-02T19:58:04.836Z,100861.81
2023-01-02T20:00:35.413Z,100983.19
2023-01-02T20:03:04.016Z,101049.72
2023-01-02T20:05:43.329Z,101009.69
2023-01-02T20:08:15.128Z,100894.25
2023-01-02T20:10:45.717Z,101008.91
2023-01-02T20:13:14.609Z,101051.28
2023-01-02T20:15:43.571Z,101063.91
2023-01-02T20:18:12.199Z,101063.09
2023-01-02T20:20:42.678Z,101048.44
2023-01-02T20:23:12.012Z,101048.63
2023-01-02T20:25:43.706Z,101049.50
2023-01-02T20:28:12.972Z,101050.47
2023-01-02T20:30:44.156Z,101058.56
2023-01-02T20:33:15.208Z,101059.47
2023-01-02T20:35:53.433Z,101005.25
2023-01-02T20:38:24.818Z,101066.63
2023-01-02T20:40:54.808Z,101050.19
2023-01-02T20:43:23.461Z,101078.16
2023-01-02T20:45:54.347Z,101078.22
2023-01-02T20:48:22.881Z,101074.75
2023-01-02T20:50:51.396Z,101073.00
2023-01-02T20:53:22.221Z,101058.28
2023-01-02T20:55:54.509Z,101087.13
2023-01-02T20:58:23.809Z,101086.22
2023-01-02T21:00:52.532Z,101046.84
2023-01-02T21:03:21.617Z,101099.53
2023-01-02T21:05:50.049Z,101117.22
2023-01-02T21:08:18.817Z,101132.22
2023-01-02T21:10:48.988Z,101132.41
2023-01-02T21:13:19.987Z,101133.28
2023-01-02T21:15:52.011Z,101139.47
2023-01-02T21:18:25.085Z,101056.28
2023-01-02T21:20:57.153Z,101142.94
2023-01-02T21:23:29.398Z,101141.22
2023-01-02T21:25:59.819Z,101134.31
2023-01-02T21:28:29.875Z,101151.88
2023-01-02T21:30:58.572Z,101155.44
2023-01-02T21:33:30.088Z,101162.53
2023-01-02T21:36:01.047Z,101163.47
2023-01-02T21:38:30.047Z,101105.69
2023-01-02T21:41:21.483Z,101136.38
2023-01-02T21:43:51.855Z,101168.81
2023-01-02T21:46:20.376Z,101171.47
2023-01-02T21:48:48.789Z,101153.13
2023-01-02T21:51:17.243Z,101153.09
2023-01-02T21:53:45.842Z,101069.81
2023-01-02T21:56:14.751Z,101177.69
2023-01-02T21:58:44.161Z,101183.00
2023-01-02T22:01:14.076Z,101165.53
2023-01-02T22:03:43.496Z,101200.72
2023-01-02T22:06:12.221Z,101206.00
2023-01-02T22:08:40.638Z,101214.81
2023-01-02T22:11:26.297Z,101215.72
2023-01-02T22:13:54.750Z,101210.44
2023-01-02T22:16:26.017Z,101221.09
2023-01-02T22:18:54.566Z,101229.03
2023-01-02T22:21:22.931Z,101241.38
2023-01-02T22:23:52.661Z,101244.88
2023-01-02T22:26:21.079Z,101244.81
2023-01-02T22:28:49.912Z,101250.13
2023-01-02T22:31:18.374Z,101247.53
2023-01-02T22:33:48.180Z,101182.59
2023-01-02T22:36:19.268Z,101243.16
2023-01-02T22:39:09.586Z,101260.69
2023-01-02T22:41:41.050Z,101246.72
2023-01-02T22:44:25.306Z,101268.63
2023-01-02T22:46:56.517Z,101277.44
2023-01-02T22:49:32.222Z,101280.09
2023-01-02T22:52:07.857Z,101252.03
2023-01-02T22:54:36.688Z,101284.56
2023-01-02T22:57:11.754Z,101264.38
2023-01-02T22:59:41.223Z,101288.97
2023-01-02T23:02:15.964Z,101301.38
2023-01-02T23:04:46.231Z,101314.63
2023-01-02T23:07:24.328Z,101309.34
2023-01-02T23:09:56.858Z,101315.56
2023-01-02T23:12:25.861Z,101305.00
2023-01-02T23:14:54.494Z,101312.03
2023-01-02T23:17:47.664Z,101312.03
2023-01-02T23:20:17.807Z,101257.59
2023-01-02T23:22:48.322Z,101269.03
2023-01-02T23:25:17.169Z,101316.47
2023-01-02T23:27:45.511Z,101312.06
2023-01-02T23:30:18.069Z,101321.75
2023-01-02T23:32:46.890Z,101329.69
2023-01-02T23:35:17.114Z,101312.16
2023-01-02T23:37:45.577Z,101323.56
2023-01-02T23:40:14.726Z,101324.44
2023-01-02T23:42:43.127Z,101330.59
2023-01-02T23:45:13.462Z,101327.09
2023-01-02T23:47:41.840Z,101329.72
2023-01-02T23:50:11.129Z,101335.91
2023-01-02T23:52:40.893Z,101334.13
2023-01-02T23:55:11.386Z,101342.94
2023-01-02T23:57:39.869Z,101340.31
